Flight Track Log - Related Links

Times and Time Zones

All times are in EDT time to prevent confusion due to time zone crossing. See the JAL917 flight status page for this flight to view local times or setup timezone preferences in your user account.

Time Position Orientation Groundspeed Altitude Reporting Facility
EDT Latitude Longitude Course Direction KTS MPH feet Rate Location/Type
Tue 12:44:00 AM 35.2764 139.3586 231° Southwest  Level Estimated
Tue 12:45:00 AM 35.2072 139.2537 231° Southwest  Level Estimated
Tue 12:46:00 AM 35.1379 139.1490 231° Southwest  Level Estimated
Tue 12:47:00 AM 35.0686 139.0446 231° Southwest  Level Estimated
Tue 12:48:00 AM 34.9991 138.9403 231° Southwest  Level Estimated
Tue 12:49:00 AM 34.9296 138.8361 231° Southwest  Level Estimated
Tue 12:50:00 AM 34.8599 138.7322 231° Southwest  Level Estimated
Tue 12:51:00 AM 34.7885 138.6259 231° Southwest  Level Estimated
Tue 12:52:00 AM 34.7170 138.5198 231° Southwest  Level Estimated
Tue 12:53:00 AM 34.6454 138.4139 231° Southwest  Level Estimated
Tue 12:54:00 AM 34.5737 138.3082 231° Southwest  Level Estimated
Tue 12:55:00 AM 34.5019 138.2026 230° Southwest  Level Estimated
Tue 12:56:00 AM 34.4301 138.0972 230° Southwest  Level Estimated
Tue 12:57:00 AM 34.3581 137.9921 230° Southwest  Level Estimated
Tue 12:58:00 AM 34.2861 137.8871 230° Southwest  Level Estimated
Tue 12:59:00 AM 34.2139 137.7822 230° Southwest  Level Estimated
Tue 01:00:00 AM 34.1417 137.6776 230° Southwest  Level Estimated
Tue 01:01:00 AM 34.0694 137.5731 230° Southwest  Level Estimated
Tue 01:02:00 AM 33.9970 137.4688 230° Southwest  Level Estimated
Tue 01:03:00 AM 33.9245 137.3647 230° Southwest  Level Estimated
Tue 01:04:00 AM 33.8519 137.2608 230° Southwest  Level Estimated
Tue 01:05:00 AM 33.7792 137.1570 230° Southwest  Level Estimated
Tue 01:06:00 AM 33.7065 137.0534 230° Southwest  Level Estimated
Tue 01:07:00 AM 33.6336 136.9500 230° Southwest  Level Estimated
Tue 01:08:00 AM 33.5607 136.8468 230° Southwest  Level Estimated
Tue 01:09:00 AM 33.4877 136.7437 230° Southwest  Level Estimated
Tue 01:10:00 AM 33.4146 136.6409 230° Southwest  Level Estimated
Tue 01:11:00 AM 33.3420 136.5390 230° Southwest  Level Estimated
Tue 01:12:00 AM 33.2693 136.4372 229° Southwest  Level Estimated
Tue 01:13:00 AM 33.1966 136.3357 229° Southwest  Level Estimated
Tue 01:14:00 AM 33.1237 136.2343 229° Southwest  Level Estimated
Tue 01:15:00 AM 33.0508 136.1331 229° Southwest  Level Estimated
Tue 01:16:00 AM 32.9778 136.0320 229° Southwest  Level Estimated
Tue 01:17:00 AM 32.9047 135.9312 229° Southwest  Level Estimated
Tue 01:18:00 AM 32.8315 135.8305 229° Southwest  Level Estimated
Tue 01:19:00 AM 32.7583 135.7299 229° Southwest  Level Estimated
Tue 01:20:00 AM 32.6849 135.6295 229° Southwest  Level Estimated
Tue 01:21:00 AM 32.6115 135.5293 229° Southwest  Level Estimated
Tue 01:22:00 AM 32.5380 135.4293 229° Southwest  Level Estimated
Tue 01:23:00 AM 32.4645 135.3294 229° Southwest  Level Estimated
Tue 01:24:00 AM 32.3908 135.2296 229° Southwest  Level Estimated
Tue 01:25:00 AM 32.3171 135.1301 229° Southwest  Level Estimated
Tue 01:26:00 AM 32.2433 135.0307 229° Southwest  Level Estimated
Tue 01:27:00 AM 32.1694 134.9315 229° Southwest  Level Estimated
Tue 01:28:00 AM 32.0955 134.8324 229° Southwest  Level Estimated
Tue 01:29:00 AM 32.0214 134.7334 229° Southwest  Level Estimated
Tue 01:30:00 AM 31.9473 134.6347 229° Southwest  Level Estimated
Tue 01:31:00 AM 31.8731 134.5361 228° Southwest  Level Estimated
Tue 01:32:00 AM 31.7988 134.4377 228° Southwest  Level Estimated
Tue 01:33:00 AM 31.7245 134.3394 228° Southwest  Level Estimated
Tue 01:34:00 AM 31.6501 134.2413 228° Southwest  Level Estimated
Tue 01:35:00 AM 31.5756 134.1433 228° Southwest  Level Estimated
Tue 01:36:00 AM 31.5010 134.0455 228° Southwest  Level Estimated
Tue 01:37:00 AM 31.4264 133.9478 228° Southwest  Level Estimated
Tue 01:38:00 AM 31.3517 133.8503 228° Southwest  Level Estimated
Tue 01:39:00 AM 31.2769 133.7530 228° Southwest  Level Estimated
Tue 01:40:00 AM 31.2020 133.6558 228° Southwest  Level Estimated
Tue 01:41:00 AM 31.1271 133.5587 228° Southwest  Level Estimated
Tue 01:42:00 AM 31.0521 133.4619 228° Southwest  Level Estimated
Tue 01:43:00 AM 30.9770 133.3651 228° Southwest  Level Estimated
Tue 01:44:00 AM 30.9019 133.2686 228° Southwest  Level Estimated
Tue 01:45:00 AM 30.8266 133.1721 228° Southwest  Level Estimated
Tue 01:46:00 AM 30.7514 133.0759 228° Southwest  Level Estimated
Tue 01:47:00 AM 30.6760 132.9797 228° Southwest  Level Estimated
Tue 01:48:00 AM 30.6006 132.8838 228° Southwest  Level Estimated
Tue 01:49:00 AM 30.5251 132.7879 228° Southwest  Level Estimated
Tue 01:50:00 AM 30.4495 132.6923 228° Southwest  Level Estimated
Tue 01:51:00 AM 30.3738 132.5967 227° Southwest  Level Estimated
Tue 01:52:00 AM 30.2981 132.5014 227° Southwest  Level Estimated
Tue 01:53:00 AM 30.2224 132.4061 227° Southwest  Level Estimated
Tue 01:54:00 AM 30.1465 132.3110 227° Southwest  Level Estimated
Tue 01:55:00 AM 30.0706 132.2161 227° Southwest  Level Estimated
Tue 01:56:00 AM 29.9946 132.1213 227° Southwest  Level Estimated
Tue 01:57:00 AM 29.9185 132.0267 227° Southwest  Level Estimated
Tue 01:58:00 AM 29.8424 131.9322 227° Southwest  Level Estimated
Tue 01:59:00 AM 29.7662 131.8378 227° Southwest  Level Estimated
Tue 02:00:00 AM 29.6900 131.7436 227° Southwest  Level Estimated
Tue 02:01:00 AM 29.6136 131.6495 227° Southwest  Level Estimated
Tue 02:02:00 AM 29.5373 131.5556 227° Southwest  Level Estimated
Tue 02:03:00 AM 29.4608 131.4618 227° Southwest  Level Estimated
Tue 02:04:00 AM 29.3843 131.3681 227° Southwest  Level Estimated
Tue 02:05:00 AM 29.3077 131.2746 227° Southwest  Level Estimated
Tue 02:06:00 AM 29.2310 131.1813 227° Southwest  Level Estimated
Tue 02:07:00 AM 29.1543 131.0880 227° Southwest  Level Estimated
Tue 02:08:00 AM 29.0775 130.9949 227° Southwest  Level Estimated
Tue 02:09:00 AM 29.0007 130.9020 227° Southwest  Level Estimated
Tue 02:10:00 AM 28.9238 130.8092 227° Southwest  Level Estimated
Tue 02:11:00 AM 28.8468 130.7165 227° Southwest  Level Estimated
Tue 02:12:00 AM 28.7698 130.6240 226° Southwest  Level Estimated
Tue 02:13:00 AM 28.6927 130.5316 226° Southwest  Level Estimated
Tue 02:14:00 AM 28.6155 130.4393 226° Southwest  Level Estimated
Tue 02:15:00 AM 28.5383 130.3472 226° Southwest  Level Estimated
Tue 02:16:00 AM 28.4610 130.2552 226° Southwest  Level Estimated
Tue 02:17:00 AM 28.3836 130.1633 226° Southwest  Level Estimated
Tue 02:18:00 AM 28.3062 130.0716 226° Southwest  Level Estimated
Tue 02:19:00 AM 28.2288 129.9800 226° Southwest  Level Estimated
Tue 02:20:00 AM 28.1512 129.8886 226° Southwest  Level Estimated
Tue 02:21:00 AM 28.0737 129.7972 226° Southwest  Level Estimated
Tue 02:22:00 AM 27.9960 129.7060 226° Southwest  Level Estimated
Tue 02:23:00 AM 27.9183 129.6150 226° Southwest  Level Estimated
Tue 02:24:00 AM 27.8405 129.5240 226° Southwest  Level Estimated
Tue 02:25:00 AM 27.7627 129.4332 226° Southwest  Level Estimated
Tue 02:26:00 AM 27.6848 129.3426 226° Southwest  Level Estimated
Tue 02:27:00 AM 27.6068 129.2520 226° Southwest  Level Estimated
Tue 02:28:00 AM 27.5288 129.1616 226° Southwest  Level Estimated
Tue 02:29:00 AM 27.4508 129.0713 226° Southwest  Level Estimated
Tue 02:30:00 AM 27.3726 128.9812 226° Southwest  Level Estimated
Tue 02:31:00 AM 27.2945 128.8911 226° Southwest  Level Estimated
Tue 02:32:00 AM 27.2162 128.8013 226° Southwest  Level Estimated
Tue 02:33:00 AM 27.1379 128.7115 226° Southwest  Level Estimated
Tue 02:34:00 AM 27.0596 128.6218 226° Southwest  Level Estimated
Tue 02:35:00 AM 26.9811 128.5323 226° Southwest  Level Estimated
Tue 02:36:00 AM 26.9027 128.4429 225° Southwest  Level Estimated
Tue 02:37:00 AM 26.8242 128.3536 225° Southwest  Level Estimated
Tue 02:38:00 AM 26.7456 128.2645 225° Southwest  Level Estimated
Tue 02:39:00 AM 26.6669 128.1754 225° Southwest  Level Estimated
Tue 02:40:00 AM 26.5882 128.0865 225° Southwest  Level Estimated
Tue 02:41:00 AM 26.5095 127.9977 225° Southwest  Level Estimated
Tue 02:42:00 AM 26.4307 127.9091 225° Southwest  Level Estimated
Tue 02:43:00 AM 26.3518 127.8205 225° Southwest  Level Estimated
Tue 02:44:00 AM 26.2729 127.7321 225° Southwest  Level Estimated
Tue 02:45:00 AM 26.1958 127.6459 225° Southwest  Level Estimated
Tue 02:46:00 AM 26.1958 127.6459 347° North  Level Estimated
Tue 02:47:00 AM 26.1958 127.6459 347° North  Level Estimated
Tue 02:48:00 AM 26.1958 127.6459 347° North  Level Estimated
Tue 02:49:00 AM 26.1958 127.6459 347° North  Level Estimated
Tue 02:50:00 AM 26.1958 127.6459 347° North  Level Estimated
Tue 02:51:00 AM 26.1958 127.6459 347° North  Level Estimated
Tue 02:52:00 AM 26.1958 127.6459 347° North  Level Estimated
Tue 02:53:00 AM 26.1958 127.6459 347° North  Level Estimated
Tue 02:54:00 AM 26.1958 127.6459 347° North  Level Estimated
Tue 02:55:00 AM 26.1958 127.6459 347° North  Level Estimated

Login

Don't have an account? Register now (free) for customized features, flight alerts, and more!